Hlavní strana
METAR-TAF:

METAR-TAF

Letiště :

Danville, Kentucky, Spojené státy americké

zeměpisná šířka: 37-34-40N, zeměpisná délka: 084-46-11W, výška: 312 m

Aktuální stav počasí

Zpráva byla vytvořena před 18 minutami, v 04:35 UTC
Bezvětří
Teplota -1°C
Vlhkost vzduchu 50%
Tlak 1024 hPa
Viditelnost: 16.1 km
Zataženo ve výšce 12000 ft

METAR: KDVK 240435Z AUTO 00000KT 10SM OVC120 M01/M10 A3025 RMK AO2

Čas: 23:53 (04:53 UTC)


TAF: chybějící

Stav a předpovědi počasí z více než 4 000 letišť (zprávy METAR a TAF).

Červené a žluté tečky na mapě představují dostupné meteorologické stanice.

Když kurzor umístíte na tečku, zobrazí se název stanice.

Pak kliknutím zobrazíte stav a předpověď počasí.

Chcete-li změnit mapu, kliknutím na zelené tlačítko se znaménkem +mapu přiblížíte, kliknutím na zelené tlačítko se znaménkem – mapu oddálíte a kliknutím na zelené šipky přejdete na sousední mapy.


METAR-TAF: